createdAt,value
2022-08-22T00:03:03.231Z,99461.02
2022-08-22T00:03:07.178Z,99461.98
2022-08-22T00:03:16.332Z,99453.19
2022-08-22T00:05:18.195Z,99446.34
2022-08-22T00:10:28.641Z,99454.53
2022-08-22T00:15:43.085Z,99455.59
2022-08-22T00:21:28.922Z,99457.38
2022-08-22T00:26:45.851Z,99456.13
2022-08-22T00:32:14.848Z,99455.75
2022-08-22T00:37:37.615Z,99461.25
2022-08-22T00:42:45.905Z,99464.23
2022-08-22T00:47:57.846Z,99465.52
2022-08-22T00:53:10.887Z,99461.98
2022-08-22T00:58:46.315Z,99465.59
2022-08-22T01:04:16.726Z,99463.95
2022-08-22T01:09:32.458Z,99470.30
2022-08-22T01:15:01.352Z,99474.86
2022-08-22T01:20:32.975Z,99478.69
2022-08-22T01:26:14.454Z,99473.76
2022-08-22T01:31:52.182Z,99474.45
2022-08-22T01:37:25.039Z,99473.21
2022-08-22T01:42:41.411Z,99476.12
2022-08-22T01:47:56.949Z,99475.64
2022-08-22T01:53:20.269Z,99467.67
2022-08-22T01:58:27.917Z,99464.14
2022-08-22T02:03:43.645Z,99465.69
2022-08-22T02:09:26.392Z,99461.89
2022-08-22T02:14:59.713Z,99461.50
2022-08-22T02:20:26.360Z,99465.50
2022-08-22T02:25:35.734Z,99468.25
2022-08-22T02:31:00.990Z,99467.83
2022-08-22T02:36:31.928Z,99463.40
2022-08-22T02:41:58.602Z,99461.22
2022-08-22T02:47:16.195Z,99468.64
2022-08-22T02:52:32.345Z,99469.30
2022-08-22T02:57:47.205Z,99472.79
2022-08-22T03:03:02.971Z,99470.90
2022-08-22T03:08:21.109Z,99470.08
2022-08-22T03:13:49.916Z,99476.52
2022-08-22T03:19:18.795Z,99474.56
2022-08-22T03:25:05.654Z,99475.66
2022-08-22T03:30:23.985Z,99479.02
2022-08-22T03:35:54.985Z,99471.17
2022-08-22T03:41:29.297Z,99480.48
2022-08-22T03:46:43.399Z,99485.73
2022-08-22T03:52:09.141Z,99485.11
2022-08-22T03:57:29.575Z,99484.63
2022-08-22T04:02:56.008Z,99489.05
2022-08-22T04:08:46.008Z,99484.73
2022-08-22T04:14:24.972Z,99487.80
2022-08-22T04:20:05.614Z,99497.88
2022-08-22T04:25:09.485Z,99503.97
2022-08-22T04:30:35.586Z,99504.29
2022-08-22T04:36:09.259Z,99511.09
2022-08-22T04:41:31.629Z,99512.60
2022-08-22T04:47:04.795Z,99515.83
2022-08-22T04:52:36.258Z,99518.02
2022-08-22T04:57:51.637Z,99521.10
2022-08-22T05:02:59.388Z,99523.62
2022-08-22T05:08:07.083Z,99526.30
2022-08-22T05:13:20.517Z,99522.47
2022-08-22T05:18:29.724Z,99525.34
2022-08-22T05:23:44.386Z,99529.08
2022-08-22T05:28:53.681Z,99532.90
2022-08-22T05:34:07.091Z,99536.59
2022-08-22T05:39:18.731Z,99543.38
2022-08-22T05:44:27.351Z,99551.23
2022-08-22T05:49:45.690Z,99559.56
2022-08-22T05:54:58.803Z,99565.20
2022-08-22T06:00:16.515Z,99567.46
2022-08-22T06:05:31.421Z,99567.04
2022-08-22T06:10:44.833Z,99568.88
2022-08-22T06:16:10.483Z,99571.05
2022-08-22T06:21:34.927Z,99565.75
2022-08-22T06:26:48.935Z,99563.91
2022-08-22T06:31:53.799Z,99563.67
2022-08-22T06:37:03.124Z,99564.65
2022-08-22T06:42:16.584Z,99557.40
2022-08-22T06:47:26.847Z,99566.81
2022-08-22T06:52:34.783Z,99575.48
2022-08-22T06:58:04.175Z,99582.77
2022-08-22T07:03:20.646Z,99584.84
2022-08-22T07:08:27.167Z,99589.27
2022-08-22T07:13:31.445Z,99591.95
2022-08-22T07:18:35.533Z,99591.24
2022-08-22T07:23:47.058Z,99597.61
2022-08-22T07:29:20.042Z,99597.34
2022-08-22T07:35:03.384Z,99605.45
2022-08-22T07:40:44.336Z,99599.70
2022-08-22T07:45:55.258Z,99595.98
2022-08-22T07:51:08.605Z,99595.80
2022-08-22T07:56:29.587Z,99592.42
2022-08-22T08:01:33.795Z,99594.23
2022-08-22T08:06:37.986Z,99592.88
2022-08-22T08:11:44.329Z,99593.74
2022-08-22T08:16:54.432Z,99594.16
2022-08-22T08:22:00.024Z,99594.42
2022-08-22T08:27:28.016Z,99601.04
2022-08-22T08:32:35.788Z,99602.19
2022-08-22T08:37:45.819Z,99603.16
2022-08-22T08:43:30.785Z,99600.64
2022-08-22T08:49:07.929Z,99606.96
2022-08-22T08:54:34.941Z,99609.58
2022-08-22T08:59:49.143Z,99612.55
2022-08-22T09:05:26.108Z,99611.02
2022-08-22T09:10:34.858Z,99611.75
2022-08-22T09:21:38.767Z,99602.55
2022-08-22T09:26:42.018Z,99604.84
2022-08-22T09:32:03.654Z,99606.58
2022-08-22T09:37:16.589Z,99603.66
2022-08-22T09:40:16.563Z,99606.48
2022-08-22T09:42:33.568Z,99596.77
2022-08-22T09:47:47.107Z,99599.07
2022-08-22T09:53:19.621Z,99599.33
2022-08-22T09:58:49.856Z,99598.88
2022-08-22T10:04:31.675Z,99599.80
2022-08-22T10:09:49.345Z,99602.83
2022-08-22T10:15:33.035Z,99596.79
2022-08-22T10:20:54.716Z,99599.94
2022-08-22T10:26:29.534Z,99606.16
2022-08-22T10:32:03.751Z,99608.23
2022-08-22T10:37:17.808Z,99603.90
2022-08-22T10:42:36.742Z,99600.52
2022-08-22T10:48:02.960Z,99601.55
2022-08-22T10:53:46.736Z,99602.91
2022-08-22T10:59:11.194Z,99592.90
2022-08-22T11:04:28.306Z,99593.42
2022-08-22T11:09:43.384Z,99589.06
2022-08-22T11:15:12.330Z,99583.94
2022-08-22T11:20:25.860Z,99584.02
2022-08-22T11:25:53.713Z,99587.40
2022-08-22T11:31:20.009Z,99590.52
2022-08-22T11:36:59.397Z,99594.20
2022-08-22T11:42:15.080Z,99593.77
2022-08-22T11:47:34.250Z,99589.08
2022-08-22T11:53:14.425Z,99594.16
2022-08-22T11:58:43.601Z,99591.79
2022-08-22T12:04:16.189Z,99596.80
2022-08-22T12:09:42.656Z,99590.03
2022-08-22T12:15:09.519Z,99589.41
2022-08-22T12:20:32.277Z,99591.44
2022-08-22T12:26:10.965Z,99590.83
2022-08-22T12:31:38.274Z,99590.52
2022-08-22T12:36:51.289Z,99587.27
2022-08-22T12:42:32.002Z,99585.71
2022-08-22T12:47:47.991Z,99584.02
2022-08-22T12:52:54.494Z,99585.02
2022-08-22T12:58:23.836Z,99579.39
2022-08-22T13:03:41.420Z,99569.86
2022-08-22T13:08:46.723Z,99565.63
2022-08-22T13:13:57.160Z,99560.41
2022-08-22T13:19:17.072Z,99564.04
2022-08-22T13:24:51.636Z,99557.80
2022-08-22T13:30:00.896Z,99551.38
2022-08-22T13:35:13.555Z,99557.09
2022-08-22T13:40:29.954Z,99557.37
2022-08-22T13:45:37.358Z,99556.85
2022-08-22T13:51:18.566Z,99555.75
2022-08-22T13:56:32.544Z,99564.98
2022-08-22T14:02:17.801Z,99576.13
2022-08-22T14:07:33.667Z,99577.95
2022-08-22T14:12:50.555Z,99572.30
2022-08-22T14:18:12.239Z,99572.05
2022-08-22T14:23:29.675Z,99568.54
2022-08-22T14:28:43.549Z,99568.93
2022-08-22T14:34:14.942Z,99569.47
2022-08-22T14:39:37.178Z,99573.32
2022-08-22T14:45:17.080Z,99560.98
2022-08-22T14:50:35.867Z,99560.04
2022-08-22T14:55:43.135Z,99564.58
2022-08-22T15:00:51.537Z,99568.23
2022-08-22T15:06:30.303Z,99562.70
2022-08-22T15:11:34.662Z,99567.80
2022-08-22T15:16:53.543Z,99561.98
2022-08-22T15:22:15.689Z,99561.45
2022-08-22T15:27:26.196Z,99559.86
2022-08-22T15:32:41.755Z,99561.69
2022-08-22T15:38:04.784Z,99563.91
2022-08-22T15:43:35.381Z,99557.91
2022-08-22T15:48:42.022Z,99548.39
2022-08-22T15:54:16.247Z,99543.38
2022-08-22T15:59:48.061Z,99547.93
2022-08-22T16:05:12.648Z,99546.41
2022-08-22T16:10:23.243Z,99542.50
2022-08-22T16:15:56.497Z,99543.56
2022-08-22T16:21:11.960Z,99560.94
2022-08-22T16:26:20.281Z,99562.00
2022-08-22T16:31:44.259Z,99563.79
2022-08-22T16:37:15.677Z,99573.96
2022-08-22T16:42:22.242Z,99586.91
2022-08-22T16:47:36.506Z,99596.48
2022-08-22T16:53:05.739Z,99599.41
2022-08-22T16:58:56.255Z,99597.17
2022-08-22T17:04:23.695Z,99600.78
2022-08-22T17:10:07.816Z,99599.38
2022-08-22T17:16:04.701Z,99602.36
2022-08-22T17:21:31.430Z,99612.19
2022-08-22T17:27:06.843Z,99624.69
2022-08-22T17:32:17.973Z,99628.54
2022-08-22T17:37:47.436Z,99622.41
2022-08-22T17:43:00.033Z,99620.88
2022-08-22T17:48:14.369Z,99621.76
2022-08-22T17:53:41.477Z,99624.84
2022-08-22T17:59:01.702Z,99628.48
2022-08-22T18:04:11.470Z,99630.26
2022-08-22T18:09:41.840Z,99636.84
2022-08-22T18:14:58.216Z,99640.90
2022-08-22T18:20:13.681Z,99651.78
2022-08-22T18:25:20.862Z,99657.14
2022-08-22T18:30:31.972Z,99662.11
2022-08-22T18:35:53.950Z,99670.95
2022-08-22T18:41:28.736Z,99687.15
2022-08-22T18:46:40.441Z,99684.82
2022-08-22T18:51:45.393Z,99677.08
2022-08-22T18:56:53.653Z,99670.23
2022-08-22T19:02:18.928Z,99670.13
2022-08-22T19:07:54.455Z,99677.46
2022-08-22T19:13:19.852Z,99676.48
2022-08-22T19:18:43.811Z,99675.34
2022-08-22T19:23:51.501Z,99669.36
2022-08-22T19:29:00.221Z,99655.63
2022-08-22T19:34:26.150Z,99660.08
2022-08-22T19:39:43.106Z,99662.54
2022-08-22T19:44:50.839Z,99662.58
2022-08-22T19:50:00.916Z,99660.06
2022-08-22T19:55:15.262Z,99662.66
2022-08-22T20:01:00.153Z,99668.16
2022-08-22T20:06:53.648Z,99674.86
2022-08-22T20:12:15.882Z,99667.13
2022-08-22T20:17:26.301Z,99666.11
2022-08-22T20:22:41.880Z,99665.99
2022-08-22T20:27:52.407Z,99655.35
2022-08-22T20:33:25.556Z,99655.91
2022-08-22T20:38:42.570Z,99642.34
2022-08-22T20:44:12.738Z,99634.23
2022-08-22T20:49:24.030Z,99632.02
2022-08-22T20:54:31.896Z,99630.84
2022-08-22T20:59:42.444Z,99628.81
2022-08-22T21:05:09.376Z,99627.62
2022-08-22T21:10:43.811Z,99612.26
2022-08-22T21:16:15.858Z,99621.12
2022-08-22T21:21:20.841Z,99611.06
2022-08-22T21:26:39.718Z,99607.02
2022-08-22T21:31:48.330Z,99614.79
2022-08-22T21:36:54.881Z,99627.30
2022-08-22T21:42:01.579Z,99623.73
2022-08-22T21:47:30.128Z,99623.42
2022-08-22T21:52:37.606Z,99618.86
2022-08-22T21:57:40.754Z,99620.65
2022-08-22T22:02:44.064Z,99624.61
2022-08-22T22:07:47.871Z,99627.30
2022-08-22T22:12:53.644Z,99629.69
2022-08-22T22:17:57.363Z,99615.89
2022-08-22T22:23:02.004Z,99605.33
2022-08-22T22:28:10.415Z,99601.50
2022-08-22T22:33:14.008Z,99599.16
2022-08-22T22:38:21.965Z,99589.51
2022-08-22T22:43:27.198Z,99590.02
2022-08-22T22:48:31.781Z,99584.70
2022-08-22T22:53:38.585Z,99578.08
2022-08-22T22:58:44.781Z,99573.33
2022-08-22T23:03:48.847Z,99581.89
2022-08-22T23:08:53.846Z,99575.05
2022-08-22T23:13:57.555Z,99562.65
2022-08-22T23:19:01.440Z,99560.02
2022-08-22T23:24:05.883Z,99550.32
2022-08-22T23:29:09.796Z,99560.00
2022-08-22T23:34:15.786Z,99567.52
2022-08-22T23:39:20.555Z,99571.85
2022-08-22T23:44:26.714Z,99568.77
2022-08-22T23:49:30.538Z,99568.92
2022-08-22T23:54:34.688Z,99565.94
2022-08-22T23:59:42.334Z,99561.92
